sensor_id;sensor_type;location;lat;lon;timestamp;P1;durP1;ratioP1;P2;durP2;ratioP2
14766;SDS011;7475;53.558;9.970;2023-06-22T00:00:52;7.20;;;4.45;;
14766;SDS011;7475;53.558;9.970;2023-06-22T00:03:18;6.38;;;4.60;;
14766;SDS011;7475;53.558;9.970;2023-06-22T00:05:44;5.88;;;4.43;;
14766;SDS011;7475;53.558;9.970;2023-06-22T00:08:10;6.78;;;4.30;;
14766;SDS011;7475;53.558;9.970;2023-06-22T00:10:36;5.32;;;4.22;;
14766;SDS011;7475;53.558;9.970;2023-06-22T00:13:01;5.80;;;4.40;;
14766;SDS011;7475;53.558;9.970;2023-06-22T00:15:26;5.35;;;4.18;;
14766;SDS011;7475;53.558;9.970;2023-06-22T00:17:52;5.35;;;4.35;;
14766;SDS011;7475;53.558;9.970;2023-06-22T00:20:18;6.00;;;4.32;;
14766;SDS011;7475;53.558;9.970;2023-06-22T00:22:43;5.53;;;4.20;;
14766;SDS011;7475;53.558;9.970;2023-06-22T00:25:09;5.82;;;4.65;;
14766;SDS011;7475;53.558;9.970;2023-06-22T00:27:35;8.65;;;4.53;;
14766;SDS011;7475;53.558;9.970;2023-06-22T00:30:01;4.80;;;4.30;;
14766;SDS011;7475;53.558;9.970;2023-06-22T00:32:27;5.10;;;4.38;;
14766;SDS011;7475;53.558;9.970;2023-06-22T00:34:52;6.55;;;5.30;;
14766;SDS011;7475;53.558;9.970;2023-06-22T00:37:18;7.05;;;4.70;;
14766;SDS011;7475;53.558;9.970;2023-06-22T00:39:43;8.10;;;7.30;;
14766;SDS011;7475;53.558;9.970;2023-06-22T00:42:09;5.10;;;4.45;;
14766;SDS011;7475;53.558;9.970;2023-06-22T00:44:37;5.18;;;4.68;;
14766;SDS011;7475;53.558;9.970;2023-06-22T00:47:02;6.72;;;4.95;;
14766;SDS011;7475;53.558;9.970;2023-06-22T00:49:28;6.05;;;4.80;;
14766;SDS011;7475;53.558;9.970;2023-06-22T00:51:54;7.05;;;6.13;;
14766;SDS011;7475;53.558;9.970;2023-06-22T00:54:21;6.65;;;5.13;;
14766;SDS011;7475;53.558;9.970;2023-06-22T00:56:50;6.85;;;5.22;;
14766;SDS011;7475;53.558;9.970;2023-06-22T00:59:19;6.30;;;4.47;;
14766;SDS011;7475;53.558;9.970;2023-06-22T01:01:45;7.32;;;4.43;;
14766;SDS011;7475;53.558;9.970;2023-06-22T01:04:11;5.60;;;4.35;;
14766;SDS011;7475;53.558;9.970;2023-06-22T01:06:38;5.65;;;4.63;;
14766;SDS011;7475;53.558;9.970;2023-06-22T01:09:20;5.07;;;4.40;;
14766;SDS011;7475;53.558;9.970;2023-06-22T01:11:53;6.03;;;4.20;;
14766;SDS011;7475;53.558;9.970;2023-06-22T01:14:31;5.28;;;4.70;;
14766;SDS011;7475;53.558;9.970;2023-06-22T01:17:03;6.43;;;4.78;;
14766;SDS011;7475;53.558;9.970;2023-06-22T01:19:35;5.47;;;4.95;;
14766;SDS011;7475;53.558;9.970;2023-06-22T01:22:08;5.15;;;4.63;;
14766;SDS011;7475;53.558;9.970;2023-06-22T01:24:45;5.75;;;5.13;;
14766;SDS011;7475;53.558;9.970;2023-06-22T01:27:33;5.30;;;4.80;;
14766;SDS011;7475;53.558;9.970;2023-06-22T01:30:10;5.63;;;5.13;;
14766;SDS011;7475;53.558;9.970;2023-06-22T01:32:38;6.00;;;5.10;;
14766;SDS011;7475;53.558;9.970;2023-06-22T01:35:06;5.88;;;5.00;;
14766;SDS011;7475;53.558;9.970;2023-06-22T01:37:33;7.57;;;5.32;;
14766;SDS011;7475;53.558;9.970;2023-06-22T01:40:00;7.32;;;5.03;;
14766;SDS011;7475;53.558;9.970;2023-06-22T01:42:28;5.85;;;5.10;;
14766;SDS011;7475;53.558;9.970;2023-06-22T01:44:54;5.60;;;5.00;;
14766;SDS011;7475;53.558;9.970;2023-06-22T01:47:21;5.70;;;5.10;;
14766;SDS011;7475;53.558;9.970;2023-06-22T01:49:47;6.03;;;5.40;;
14766;SDS011;7475;53.558;9.970;2023-06-22T01:52:13;6.40;;;5.40;;
14766;SDS011;7475;53.558;9.970;2023-06-22T01:54:39;6.30;;;5.57;;
14766;SDS011;7475;53.558;9.970;2023-06-22T01:57:05;5.72;;;5.18;;
14766;SDS011;7475;53.558;9.970;2023-06-22T01:59:38;5.68;;;5.07;;
14766;SDS011;7475;53.558;9.970;2023-06-22T02:02:24;7.18;;;5.15;;
14766;SDS011;7475;53.558;9.970;2023-06-22T02:04:59;6.00;;;5.40;;
14766;SDS011;7475;53.558;9.970;2023-06-22T02:07:32;8.43;;;6.05;;
14766;SDS011;7475;53.558;9.970;2023-06-22T02:10:03;5.97;;;5.35;;
14766;SDS011;7475;53.558;9.970;2023-06-22T02:12:32;8.80;;;5.47;;
14766;SDS011;7475;53.558;9.970;2023-06-22T02:14:59;6.30;;;5.30;;
14766;SDS011;7475;53.558;9.970;2023-06-22T02:17:25;6.38;;;5.38;;
14766;SDS011;7475;53.558;9.970;2023-06-22T02:19:51;6.70;;;5.38;;
14766;SDS011;7475;53.558;9.970;2023-06-22T02:22:17;6.63;;;5.93;;
14766;SDS011;7475;53.558;9.970;2023-06-22T02:24:42;6.90;;;5.70;;
14766;SDS011;7475;53.558;9.970;2023-06-22T02:27:08;5.65;;;5.15;;
14766;SDS011;7475;53.558;9.970;2023-06-22T02:29:33;6.82;;;5.40;;
14766;SDS011;7475;53.558;9.970;2023-06-22T02:31:58;6.20;;;5.63;;
14766;SDS011;7475;53.558;9.970;2023-06-22T02:34:24;6.80;;;5.78;;
14766;SDS011;7475;53.558;9.970;2023-06-22T02:36:50;6.93;;;5.68;;
14766;SDS011;7475;53.558;9.970;2023-06-22T02:41:51;8.13;;;6.35;;
14766;SDS011;7475;53.558;9.970;2023-06-22T02:44:18;9.93;;;6.88;;
14766;SDS011;7475;53.558;9.970;2023-06-22T02:46:45;10.60;;;7.57;;
14766;SDS011;7475;53.558;9.970;2023-06-22T02:49:11;8.40;;;6.50;;
14766;SDS011;7475;53.558;9.970;2023-06-22T02:51:38;6.93;;;6.25;;
14766;SDS011;7475;53.558;9.970;2023-06-22T02:54:04;8.43;;;6.15;;
14766;SDS011;7475;53.558;9.970;2023-06-22T02:56:30;6.78;;;6.18;;
14766;SDS011;7475;53.558;9.970;2023-06-22T02:58:56;8.52;;;6.20;;
14766;SDS011;7475;53.558;9.970;2023-06-22T03:01:25;6.78;;;6.05;;
14766;SDS011;7475;53.558;9.970;2023-06-22T03:03:52;6.75;;;5.90;;
14766;SDS011;7475;53.558;9.970;2023-06-22T03:06:18;9.25;;;6.72;;
14766;SDS011;7475;53.558;9.970;2023-06-22T03:08:49;8.00;;;6.90;;
14766;SDS011;7475;53.558;9.970;2023-06-22T03:11:16;8.15;;;6.38;;
14766;SDS011;7475;53.558;9.970;2023-06-22T03:13:41;6.95;;;6.20;;
14766;SDS011;7475;53.558;9.970;2023-06-22T03:16:06;7.55;;;6.50;;
14766;SDS011;7475;53.558;9.970;2023-06-22T03:18:32;7.28;;;6.25;;
14766;SDS011;7475;53.558;9.970;2023-06-22T03:20:57;8.75;;;7.10;;
14766;SDS011;7475;53.558;9.970;2023-06-22T03:23:22;7.75;;;6.63;;
14766;SDS011;7475;53.558;9.970;2023-06-22T03:25:48;10.38;;;7.30;;
14766;SDS011;7475;53.558;9.970;2023-06-22T03:28:13;7.90;;;6.88;;
14766;SDS011;7475;53.558;9.970;2023-06-22T03:30:38;7.38;;;6.60;;
14766;SDS011;7475;53.558;9.970;2023-06-22T03:33:03;8.13;;;7.30;;
14766;SDS011;7475;53.558;9.970;2023-06-22T03:35:29;9.07;;;7.55;;
14766;SDS011;7475;53.558;9.970;2023-06-22T03:37:54;8.05;;;7.25;;
14766;SDS011;7475;53.558;9.970;2023-06-22T03:40:20;7.88;;;6.80;;
14766;SDS011;7475;53.558;9.970;2023-06-22T03:42:45;7.60;;;6.80;;
14766;SDS011;7475;53.558;9.970;2023-06-22T03:45:11;9.45;;;7.38;;
14766;SDS011;7475;53.558;9.970;2023-06-22T03:47:36;8.30;;;7.47;;
14766;SDS011;7475;53.558;9.970;2023-06-22T03:50:02;10.82;;;7.75;;
14766;SDS011;7475;53.558;9.970;2023-06-22T03:52:28;7.97;;;7.18;;
14766;SDS011;7475;53.558;9.970;2023-06-22T03:54:54;11.30;;;7.07;;
14766;SDS011;7475;53.558;9.970;2023-06-22T03:57:20;9.05;;;6.65;;
14766;SDS011;7475;53.558;9.970;2023-06-22T03:59:45;9.40;;;6.50;;
14766;SDS011;7475;53.558;9.970;2023-06-22T04:02:10;6.28;;;5.68;;
14766;SDS011;7475;53.558;9.970;2023-06-22T04:04:36;7.13;;;6.35;;
14766;SDS011;7475;53.558;9.970;2023-06-22T04:07:03;9.68;;;6.78;;
14766;SDS011;7475;53.558;9.970;2023-06-22T04:09:29;9.18;;;6.25;;
14766;SDS011;7475;53.558;9.970;2023-06-22T04:11:54;7.90;;;6.60;;
14766;SDS011;7475;53.558;9.970;2023-06-22T04:14:19;7.30;;;6.47;;
14766;SDS011;7475;53.558;9.970;2023-06-22T04:16:45;8.73;;;7.00;;
14766;SDS011;7475;53.558;9.970;2023-06-22T04:19:10;6.35;;;5.55;;
14766;SDS011;7475;53.558;9.970;2023-06-22T04:21:41;6.65;;;5.75;;
14766;SDS011;7475;53.558;9.970;2023-06-22T04:24:06;7.20;;;5.80;;
14766;SDS011;7475;53.558;9.970;2023-06-22T04:26:31;7.95;;;5.40;;
14766;SDS011;7475;53.558;9.970;2023-06-22T04:29:01;6.00;;;5.35;;
14766;SDS011;7475;53.558;9.970;2023-06-22T04:31:30;7.47;;;5.70;;
14766;SDS011;7475;53.558;9.970;2023-06-22T04:33:57;8.32;;;5.45;;
14766;SDS011;7475;53.558;9.970;2023-06-22T04:36:22;6.10;;;5.50;;
14766;SDS011;7475;53.558;9.970;2023-06-22T04:38:48;7.35;;;6.30;;
14766;SDS011;7475;53.558;9.970;2023-06-22T04:41:17;20.55;;;8.38;;
14766;SDS011;7475;53.558;9.970;2023-06-22T04:43:48;7.00;;;5.78;;
14766;SDS011;7475;53.558;9.970;2023-06-22T04:46:18;9.13;;;6.95;;
14766;SDS011;7475;53.558;9.970;2023-06-22T04:48:44;8.50;;;6.22;;
14766;SDS011;7475;53.558;9.970;2023-06-22T04:51:09;7.82;;;5.97;;
14766;SDS011;7475;53.558;9.970;2023-06-22T04:53:35;8.93;;;6.00;;
14766;SDS011;7475;53.558;9.970;2023-06-22T04:56:00;7.68;;;5.95;;
14766;SDS011;7475;53.558;9.970;2023-06-22T04:58:29;9.95;;;6.55;;
14766;SDS011;7475;53.558;9.970;2023-06-22T05:00:57;6.45;;;5.68;;
14766;SDS011;7475;53.558;9.970;2023-06-22T05:03:24;8.15;;;5.93;;
14766;SDS011;7475;53.558;9.970;2023-06-22T05:05:51;7.95;;;5.53;;
14766;SDS011;7475;53.558;9.970;2023-06-22T05:08:17;6.82;;;6.22;;
14766;SDS011;7475;53.558;9.970;2023-06-22T05:10:43;6.90;;;5.50;;
14766;SDS011;7475;53.558;9.970;2023-06-22T05:13:08;6.78;;;5.85;;
14766;SDS011;7475;53.558;9.970;2023-06-22T05:15:33;5.38;;;4.88;;
14766;SDS011;7475;53.558;9.970;2023-06-22T05:18:04;8.43;;;5.15;;
14766;SDS011;7475;53.558;9.970;2023-06-22T05:20:30;7.38;;;5.93;;
14766;SDS011;7475;53.558;9.970;2023-06-22T05:22:55;6.75;;;5.85;;
14766;SDS011;7475;53.558;9.970;2023-06-22T05:25:21;8.60;;;5.25;;
14766;SDS011;7475;53.558;9.970;2023-06-22T05:27:46;5.40;;;4.90;;
14766;SDS011;7475;53.558;9.970;2023-06-22T05:30:12;7.03;;;6.32;;
14766;SDS011;7475;53.558;9.970;2023-06-22T05:32:37;7.15;;;5.15;;
14766;SDS011;7475;53.558;9.970;2023-06-22T05:35:03;6.97;;;5.50;;
14766;SDS011;7475;53.558;9.970;2023-06-22T05:37:29;4.53;;;3.80;;
14766;SDS011;7475;53.558;9.970;2023-06-22T05:39:54;5.35;;;4.07;;
14766;SDS011;7475;53.558;9.970;2023-06-22T05:42:20;8.18;;;3.78;;
14766;SDS011;7475;53.558;9.970;2023-06-22T05:44:46;5.10;;;3.67;;
14766;SDS011;7475;53.558;9.970;2023-06-22T05:47:12;7.45;;;3.67;;
14766;SDS011;7475;53.558;9.970;2023-06-22T05:49:37;5.53;;;3.50;;
14766;SDS011;7475;53.558;9.970;2023-06-22T05:52:03;5.57;;;4.18;;
14766;SDS011;7475;53.558;9.970;2023-06-22T05:54:28;6.70;;;4.30;;
14766;SDS011;7475;53.558;9.970;2023-06-22T05:56:54;5.07;;;3.92;;
14766;SDS011;7475;53.558;9.970;2023-06-22T05:59:19;7.53;;;3.70;;
14766;SDS011;7475;53.558;9.970;2023-06-22T06:01:44;4.68;;;4.28;;
14766;SDS011;7475;53.558;9.970;2023-06-22T06:04:10;4.85;;;4.00;;
14766;SDS011;7475;53.558;9.970;2023-06-22T06:06:35;4.63;;;4.00;;
14766;SDS011;7475;53.558;9.970;2023-06-22T06:09:05;6.88;;;3.95;;
14766;SDS011;7475;53.558;9.970;2023-06-22T06:11:32;5.65;;;3.80;;
14766;SDS011;7475;53.558;9.970;2023-06-22T06:13:57;8.85;;;3.92;;
14766;SDS011;7475;53.558;9.970;2023-06-22T06:16:23;8.13;;;3.45;;
14766;SDS011;7475;53.558;9.970;2023-06-22T06:18:48;8.40;;;3.30;;
14766;SDS011;7475;53.558;9.970;2023-06-22T06:21:15;4.63;;;3.38;;
14766;SDS011;7475;53.558;9.970;2023-06-22T06:23:41;9.52;;;3.92;;
14766;SDS011;7475;53.558;9.970;2023-06-22T06:26:07;7.95;;;4.00;;
14766;SDS011;7475;53.558;9.970;2023-06-22T06:28:32;6.72;;;3.50;;
14766;SDS011;7475;53.558;9.970;2023-06-22T06:30:58;5.20;;;3.55;;
14766;SDS011;7475;53.558;9.970;2023-06-22T06:33:24;4.13;;;3.30;;
14766;SDS011;7475;53.558;9.970;2023-06-22T06:35:49;6.28;;;3.72;;
14766;SDS011;7475;53.558;9.970;2023-06-22T06:38:14;6.50;;;3.58;;
14766;SDS011;7475;53.558;9.970;2023-06-22T06:40:40;5.35;;;3.67;;
14766;SDS011;7475;53.558;9.970;2023-06-22T06:43:06;7.85;;;3.75;;
14766;SDS011;7475;53.558;9.970;2023-06-22T06:45:31;10.07;;;6.60;;
14766;SDS011;7475;53.558;9.970;2023-06-22T06:47:58;3.80;;;3.38;;
14766;SDS011;7475;53.558;9.970;2023-06-22T06:50:23;8.77;;;3.88;;
14766;SDS011;7475;53.558;9.970;2023-06-22T06:52:48;4.97;;;3.50;;
14766;SDS011;7475;53.558;9.970;2023-06-22T06:55:15;5.20;;;3.10;;
14766;SDS011;7475;53.558;9.970;2023-06-22T06:57:41;7.38;;;3.40;;
14766;SDS011;7475;53.558;9.970;2023-06-22T07:00:08;5.68;;;3.50;;
14766;SDS011;7475;53.558;9.970;2023-06-22T07:02:40;6.20;;;3.35;;
14766;SDS011;7475;53.558;9.970;2023-06-22T07:05:10;4.03;;;3.53;;
14766;SDS011;7475;53.558;9.970;2023-06-22T07:07:37;4.85;;;3.47;;
14766;SDS011;7475;53.558;9.970;2023-06-22T07:10:02;4.90;;;3.30;;
14766;SDS011;7475;53.558;9.970;2023-06-22T07:12:29;5.05;;;3.17;;
14766;SDS011;7475;53.558;9.970;2023-06-22T07:14:57;6.78;;;3.50;;
14766;SDS011;7475;53.558;9.970;2023-06-22T07:17:30;6.18;;;3.22;;
14766;SDS011;7475;53.558;9.970;2023-06-22T07:19:55;5.75;;;3.63;;
14766;SDS011;7475;53.558;9.970;2023-06-22T07:22:20;4.05;;;3.40;;
14766;SDS011;7475;53.558;9.970;2023-06-22T07:24:46;4.25;;;3.30;;
14766;SDS011;7475;53.558;9.970;2023-06-22T07:27:11;4.60;;;2.97;;
14766;SDS011;7475;53.558;9.970;2023-06-22T07:29:37;4.95;;;2.58;;
14766;SDS011;7475;53.558;9.970;2023-06-22T07:32:04;6.05;;;2.97;;
14766;SDS011;7475;53.558;9.970;2023-06-22T07:34:30;4.93;;;3.10;;
14766;SDS011;7475;53.558;9.970;2023-06-22T07:36:55;8.32;;;3.45;;
14766;SDS011;7475;53.558;9.970;2023-06-22T07:39:21;5.38;;;2.97;;
14766;SDS011;7475;53.558;9.970;2023-06-22T07:41:50;6.85;;;3.00;;
14766;SDS011;7475;53.558;9.970;2023-06-22T07:44:16;4.15;;;3.00;;
14766;SDS011;7475;53.558;9.970;2023-06-22T07:46:41;4.63;;;3.40;;
14766;SDS011;7475;53.558;9.970;2023-06-22T07:49:07;4.05;;;2.75;;
14766;SDS011;7475;53.558;9.970;2023-06-22T07:51:33;3.00;;;2.72;;
14766;SDS011;7475;53.558;9.970;2023-06-22T07:53:59;3.35;;;2.53;;
14766;SDS011;7475;53.558;9.970;2023-06-22T07:56:24;4.57;;;2.92;;
14766;SDS011;7475;53.558;9.970;2023-06-22T07:58:49;3.90;;;2.90;;
14766;SDS011;7475;53.558;9.970;2023-06-22T08:01:15;3.80;;;2.90;;
14766;SDS011;7475;53.558;9.970;2023-06-22T08:03:40;7.47;;;3.40;;
14766;SDS011;7475;53.558;9.970;2023-06-22T08:06:07;6.32;;;2.65;;
14766;SDS011;7475;53.558;9.970;2023-06-22T08:08:34;3.83;;;2.40;;
14766;SDS011;7475;53.558;9.970;2023-06-22T08:11:01;5.32;;;2.90;;
14766;SDS011;7475;53.558;9.970;2023-06-22T08:13:27;6.80;;;5.28;;
14766;SDS011;7475;53.558;9.970;2023-06-22T08:15:52;4.82;;;2.70;;
14766;SDS011;7475;53.558;9.970;2023-06-22T08:18:17;4.50;;;2.80;;
14766;SDS011;7475;53.558;9.970;2023-06-22T08:20:43;2.67;;;2.22;;
14766;SDS011;7475;53.558;9.970;2023-06-22T08:23:08;4.60;;;2.33;;
14766;SDS011;7475;53.558;9.970;2023-06-22T08:25:33;5.82;;;2.95;;
14766;SDS011;7475;53.558;9.970;2023-06-22T08:28:00;3.90;;;2.20;;
14766;SDS011;7475;53.558;9.970;2023-06-22T08:30:25;6.80;;;2.75;;
14766;SDS011;7475;53.558;9.970;2023-06-22T08:32:51;4.05;;;2.53;;
14766;SDS011;7475;53.558;9.970;2023-06-22T08:35:16;7.82;;;4.50;;
14766;SDS011;7475;53.558;9.970;2023-06-22T08:37:42;3.50;;;2.33;;
14766;SDS011;7475;53.558;9.970;2023-06-22T08:40:08;3.38;;;2.92;;
14766;SDS011;7475;53.558;9.970;2023-06-22T08:42:39;3.58;;;3.25;;
14766;SDS011;7475;53.558;9.970;2023-06-22T08:45:05;4.32;;;2.92;;
14766;SDS011;7475;53.558;9.970;2023-06-22T08:47:31;4.88;;;2.90;;
14766;SDS011;7475;53.558;9.970;2023-06-22T08:49:56;4.45;;;2.70;;
14766;SDS011;7475;53.558;9.970;2023-06-22T08:52:22;6.88;;;2.70;;
14766;SDS011;7475;53.558;9.970;2023-06-22T08:54:48;2.95;;;2.10;;
14766;SDS011;7475;53.558;9.970;2023-06-22T08:57:14;3.63;;;2.20;;
14766;SDS011;7475;53.558;9.970;2023-06-22T08:59:39;2.75;;;2.10;;
14766;SDS011;7475;53.558;9.970;2023-06-22T09:02:05;2.40;;;2.20;;
14766;SDS011;7475;53.558;9.970;2023-06-22T09:04:31;4.05;;;2.50;;
14766;SDS011;7475;53.558;9.970;2023-06-22T09:06:59;11.73;;;2.92;;
14766;SDS011;7475;53.558;9.970;2023-06-22T09:09:25;3.17;;;2.88;;
14766;SDS011;7475;53.558;9.970;2023-06-22T09:11:50;2.95;;;2.33;;
14766;SDS011;7475;53.558;9.970;2023-06-22T09:14:16;3.63;;;2.67;;
14766;SDS011;7475;53.558;9.970;2023-06-22T09:16:41;4.78;;;2.30;;
14766;SDS011;7475;53.558;9.970;2023-06-22T09:19:07;6.50;;;2.25;;
14766;SDS011;7475;53.558;9.970;2023-06-22T09:21:32;4.03;;;2.67;;
14766;SDS011;7475;53.558;9.970;2023-06-22T09:23:57;3.03;;;2.22;;
14766;SDS011;7475;53.558;9.970;2023-06-22T09:26:23;3.05;;;2.38;;
14766;SDS011;7475;53.558;9.970;2023-06-22T09:28:49;3.20;;;2.55;;
14766;SDS011;7475;53.558;9.970;2023-06-22T09:31:14;4.75;;;2.45;;
14766;SDS011;7475;53.558;9.970;2023-06-22T09:33:41;3.63;;;2.40;;
14766;SDS011;7475;53.558;9.970;2023-06-22T09:36:07;5.65;;;2.92;;
14766;SDS011;7475;53.558;9.970;2023-06-22T09:38:38;5.10;;;2.80;;
14766;SDS011;7475;53.558;9.970;2023-06-22T09:41:04;3.92;;;2.60;;
14766;SDS011;7475;53.558;9.970;2023-06-22T09:43:31;8.73;;;3.33;;
14766;SDS011;7475;53.558;9.970;2023-06-22T09:45:57;3.45;;;2.40;;
14766;SDS011;7475;53.558;9.970;2023-06-22T09:48:23;3.42;;;3.13;;
14766;SDS011;7475;53.558;9.970;2023-06-22T09:50:48;4.75;;;2.67;;
14766;SDS011;7475;53.558;9.970;2023-06-22T09:53:13;4.85;;;2.85;;
14766;SDS011;7475;53.558;9.970;2023-06-22T09:55:39;8.93;;;3.10;;
14766;SDS011;7475;53.558;9.970;2023-06-22T09:58:04;4.28;;;2.63;;
14766;SDS011;7475;53.558;9.970;2023-06-22T10:00:29;5.53;;;3.78;;
14766;SDS011;7475;53.558;9.970;2023-06-22T10:02:55;4.22;;;3.25;;
14766;SDS011;7475;53.558;9.970;2023-06-22T10:05:21;7.90;;;3.88;;
14766;SDS011;7475;53.558;9.970;2023-06-22T10:07:46;5.35;;;3.72;;
14766;SDS011;7475;53.558;9.970;2023-06-22T10:10:12;4.53;;;3.20;;
14766;SDS011;7475;53.558;9.970;2023-06-22T10:12:41;4.32;;;2.97;;
14766;SDS011;7475;53.558;9.970;2023-06-22T10:15:08;3.85;;;2.33;;
14766;SDS011;7475;53.558;9.970;2023-06-22T10:17:34;8.85;;;2.42;;
14766;SDS011;7475;53.558;9.970;2023-06-22T10:20:00;5.03;;;3.00;;
14766;SDS011;7475;53.558;9.970;2023-06-22T10:22:26;3.28;;;2.60;;
14766;SDS011;7475;53.558;9.970;2023-06-22T10:24:51;2.40;;;2.20;;
14766;SDS011;7475;53.558;9.970;2023-06-22T10:27:17;4.80;;;3.15;;
14766;SDS011;7475;53.558;9.970;2023-06-22T10:29:42;4.60;;;2.45;;
14766;SDS011;7475;53.558;9.970;2023-06-22T10:32:08;5.40;;;2.70;;
14766;SDS011;7475;53.558;9.970;2023-06-22T10:34:33;2.88;;;2.60;;
14766;SDS011;7475;53.558;9.970;2023-06-22T10:36:58;4.78;;;2.90;;
14766;SDS011;7475;53.558;9.970;2023-06-22T10:39:24;5.60;;;3.70;;
14766;SDS011;7475;53.558;9.970;2023-06-22T10:41:49;5.10;;;3.60;;
14766;SDS011;7475;53.558;9.970;2023-06-22T10:44:14;4.95;;;3.80;;
14766;SDS011;7475;53.558;9.970;2023-06-22T10:46:40;4.70;;;4.25;;
14766;SDS011;7475;53.558;9.970;2023-06-22T10:49:05;3.55;;;3.25;;
14766;SDS011;7475;53.558;9.970;2023-06-22T10:51:30;4.43;;;4.03;;
14766;SDS011;7475;53.558;9.970;2023-06-22T10:53:57;5.85;;;2.97;;
14766;SDS011;7475;53.558;9.970;2023-06-22T10:56:22;6.32;;;2.97;;
14766;SDS011;7475;53.558;9.970;2023-06-22T10:58:47;7.90;;;5.65;;
14766;SDS011;7475;53.558;9.970;2023-06-22T11:01:13;3.85;;;3.47;;
14766;SDS011;7475;53.558;9.970;2023-06-22T11:03:39;6.22;;;3.75;;
14766;SDS011;7475;53.558;9.970;2023-06-22T11:06:04;3.75;;;3.30;;
14766;SDS011;7475;53.558;9.970;2023-06-22T11:08:29;3.53;;;3.22;;
14766;SDS011;7475;53.558;9.970;2023-06-22T11:10:54;3.92;;;3.10;;
14766;SDS011;7475;53.558;9.970;2023-06-22T11:13:20;5.70;;;3.87;;
14766;SDS011;7475;53.558;9.970;2023-06-22T11:15:45;5.93;;;4.03;;
14766;SDS011;7475;53.558;9.970;2023-06-22T11:18:10;4.97;;;4.40;;
14766;SDS011;7475;53.558;9.970;2023-06-22T11:20:36;3.03;;;2.70;;
14766;SDS011;7475;53.558;9.970;2023-06-22T11:23:04;6.70;;;3.00;;
14766;SDS011;7475;53.558;9.970;2023-06-22T11:25:31;6.15;;;2.90;;
14766;SDS011;7475;53.558;9.970;2023-06-22T11:27:56;4.43;;;2.70;;
14766;SDS011;7475;53.558;9.970;2023-06-22T11:30:22;4.68;;;2.97;;
14766;SDS011;7475;53.558;9.970;2023-06-22T11:32:48;4.18;;;2.60;;
14766;SDS011;7475;53.558;9.970;2023-06-22T11:35:13;11.13;;;3.65;;
14766;SDS011;7475;53.558;9.970;2023-06-22T11:37:39;8.75;;;3.20;;
14766;SDS011;7475;53.558;9.970;2023-06-22T11:40:04;3.83;;;2.70;;
14766;SDS011;7475;53.558;9.970;2023-06-22T11:42:33;5.32;;;3.70;;
14766;SDS011;7475;53.558;9.970;2023-06-22T11:44:59;4.05;;;3.20;;
14766;SDS011;7475;53.558;9.970;2023-06-22T11:47:24;4.47;;;4.07;;
14766;SDS011;7475;53.558;9.970;2023-06-22T11:49:50;8.00;;;7.32;;
14766;SDS011;7475;53.558;9.970;2023-06-22T11:52:15;5.28;;;3.58;;
14766;SDS011;7475;53.558;9.970;2023-06-22T11:54:42;10.10;;;3.78;;
14766;SDS011;7475;53.558;9.970;2023-06-22T11:57:08;4.00;;;3.42;;
14766;SDS011;7475;53.558;9.970;2023-06-22T11:59:33;9.73;;;3.95;;
14766;SDS011;7475;53.558;9.970;2023-06-22T12:01:59;5.68;;;3.78;;
14766;SDS011;7475;53.558;9.970;2023-06-22T12:04:24;3.67;;;3.38;;
14766;SDS011;7475;53.558;9.970;2023-06-22T12:06:49;5.57;;;3.90;;
14766;SDS011;7475;53.558;9.970;2023-06-22T12:09:15;6.07;;;3.55;;
14766;SDS011;7475;53.558;9.970;2023-06-22T12:11:40;7.35;;;4.75;;
14766;SDS011;7475;53.558;9.970;2023-06-22T12:14:06;8.57;;;5.18;;
14766;SDS011;7475;53.558;9.970;2023-06-22T12:16:31;6.65;;;4.68;;
14766;SDS011;7475;53.558;9.970;2023-06-22T12:18:56;6.18;;;3.35;;
14766;SDS011;7475;53.558;9.970;2023-06-22T12:21:21;13.13;;;3.58;;
14766;SDS011;7475;53.558;9.970;2023-06-22T12:23:47;5.25;;;3.60;;
14766;SDS011;7475;53.558;9.970;2023-06-22T12:26:12;7.90;;;4.45;;
14766;SDS011;7475;53.558;9.970;2023-06-22T12:28:38;7.93;;;3.75;;
14766;SDS011;7475;53.558;9.970;2023-06-22T12:31:03;7.05;;;4.40;;
14766;SDS011;7475;53.558;9.970;2023-06-22T12:33:28;12.13;;;5.97;;
14766;SDS011;7475;53.558;9.970;2023-06-22T12:35:55;9.15;;;6.03;;
14766;SDS011;7475;53.558;9.970;2023-06-22T12:38:20;6.55;;;5.38;;
14766;SDS011;7475;53.558;9.970;2023-06-22T12:40:46;8.43;;;4.90;;
14766;SDS011;7475;53.558;9.970;2023-06-22T12:43:12;6.70;;;4.10;;
14766;SDS011;7475;53.558;9.970;2023-06-22T12:45:37;5.07;;;3.30;;
14766;SDS011;7475;53.558;9.970;2023-06-22T12:48:02;9.70;;;4.30;;
14766;SDS011;7475;53.558;9.970;2023-06-22T12:50:28;8.75;;;3.75;;
14766;SDS011;7475;53.558;9.970;2023-06-22T12:52:53;6.35;;;5.75;;
14766;SDS011;7475;53.558;9.970;2023-06-22T12:55:18;10.63;;;6.78;;
14766;SDS011;7475;53.558;9.970;2023-06-22T12:57:44;6.35;;;3.88;;
14766;SDS011;7475;53.558;9.970;2023-06-22T13:00:09;6.07;;;4.07;;
14766;SDS011;7475;53.558;9.970;2023-06-22T13:02:35;6.78;;;4.57;;
14766;SDS011;7475;53.558;9.970;2023-06-22T13:05:02;8.05;;;4.32;;
14766;SDS011;7475;53.558;9.970;2023-06-22T13:07:30;9.18;;;4.72;;
14766;SDS011;7475;53.558;9.970;2023-06-22T13:09:55;8.65;;;6.57;;
14766;SDS011;7475;53.558;9.970;2023-06-22T13:12:20;20.90;;;5.40;;
14766;SDS011;7475;53.558;9.970;2023-06-22T13:14:46;4.22;;;3.83;;
14766;SDS011;7475;53.558;9.970;2023-06-22T13:17:12;5.53;;;4.75;;
14766;SDS011;7475;53.558;9.970;2023-06-22T13:19:38;8.88;;;4.20;;
14766;SDS011;7475;53.558;9.970;2023-06-22T13:22:03;5.38;;;3.90;;
14766;SDS011;7475;53.558;9.970;2023-06-22T13:24:29;7.25;;;3.83;;
14766;SDS011;7475;53.558;9.970;2023-06-22T13:26:54;5.50;;;4.95;;
14766;SDS011;7475;53.558;9.970;2023-06-22T13:29:20;4.88;;;4.35;;
14766;SDS011;7475;53.558;9.970;2023-06-22T13:31:45;7.30;;;3.85;;
14766;SDS011;7475;53.558;9.970;2023-06-22T13:34:10;10.10;;;6.07;;
14766;SDS011;7475;53.558;9.970;2023-06-22T13:36:36;6.55;;;5.80;;
14766;SDS011;7475;53.558;9.970;2023-06-22T13:39:02;4.78;;;4.30;;
14766;SDS011;7475;53.558;9.970;2023-06-22T13:41:27;6.28;;;4.35;;
14766;SDS011;7475;53.558;9.970;2023-06-22T13:43:53;4.18;;;3.80;;
14766;SDS011;7475;53.558;9.970;2023-06-22T13:46:18;4.38;;;3.97;;
14766;SDS011;7475;53.558;9.970;2023-06-22T13:48:43;7.07;;;6.43;;
14766;SDS011;7475;53.558;9.970;2023-06-22T13:51:09;6.18;;;5.65;;
14766;SDS011;7475;53.558;9.970;2023-06-22T13:53:34;5.20;;;4.18;;
14766;SDS011;7475;53.558;9.970;2023-06-22T13:55:59;6.10;;;3.85;;
14766;SDS011;7475;53.558;9.970;2023-06-22T13:58:24;8.27;;;4.10;;
14766;SDS011;7475;53.558;9.970;2023-06-22T14:00:50;4.88;;;4.40;;
14766;SDS011;7475;53.558;9.970;2023-06-22T14:03:15;5.47;;;3.85;;
14766;SDS011;7475;53.558;9.970;2023-06-22T14:05:43;5.88;;;4.50;;
14766;SDS011;7475;53.558;9.970;2023-06-22T14:08:08;5.93;;;4.22;;
14766;SDS011;7475;53.558;9.970;2023-06-22T14:10:34;4.28;;;3.50;;
14766;SDS011;7475;53.558;9.970;2023-06-22T14:13:00;5.15;;;4.20;;
14766;SDS011;7475;53.558;9.970;2023-06-22T14:15:25;6.68;;;3.47;;
14766;SDS011;7475;53.558;9.970;2023-06-22T14:17:51;4.78;;;4.38;;
14766;SDS011;7475;53.558;9.970;2023-06-22T14:20:17;5.32;;;3.65;;
14766;SDS011;7475;53.558;9.970;2023-06-22T14:22:44;5.32;;;4.25;;
14766;SDS011;7475;53.558;9.970;2023-06-22T14:25:09;5.38;;;4.50;;
14766;SDS011;7475;53.558;9.970;2023-06-22T14:27:34;4.75;;;4.35;;
14766;SDS011;7475;53.558;9.970;2023-06-22T14:30:00;4.82;;;4.30;;
14766;SDS011;7475;53.558;9.970;2023-06-22T14:32:27;7.68;;;3.97;;
14766;SDS011;7475;53.558;9.970;2023-06-22T14:34:54;7.10;;;5.10;;
14766;SDS011;7475;53.558;9.970;2023-06-22T14:37:20;6.82;;;5.00;;
14766;SDS011;7475;53.558;9.970;2023-06-22T14:39:45;10.18;;;8.20;;
14766;SDS011;7475;53.558;9.970;2023-06-22T14:42:10;8.82;;;7.13;;
14766;SDS011;7475;53.558;9.970;2023-06-22T14:44:36;7.00;;;4.38;;
14766;SDS011;7475;53.558;9.970;2023-06-22T14:47:01;4.15;;;3.85;;
14766;SDS011;7475;53.558;9.970;2023-06-22T14:49:27;4.53;;;3.83;;
14766;SDS011;7475;53.558;9.970;2023-06-22T14:51:52;5.93;;;3.85;;
14766;SDS011;7475;53.558;9.970;2023-06-22T14:54:18;43.03;;;38.63;;
14766;SDS011;7475;53.558;9.970;2023-06-22T14:56:43;27.75;;;24.80;;